sensor_id;sensor_type;location;lat;lon;timestamp;P1;durP1;ratioP1;P2;durP2;ratioP2
17422;SDS011;8829;47.932;7.810;2023-05-24T00:01:45;13.07;;;9.50;;
17422;SDS011;8829;47.932;7.810;2023-05-24T00:04:12;8.73;;;7.90;;
17422;SDS011;8829;47.932;7.810;2023-05-24T00:06:40;11.43;;;8.70;;
17422;SDS011;8829;47.932;7.810;2023-05-24T00:09:08;10.90;;;8.07;;
17422;SDS011;8829;47.932;7.810;2023-05-24T00:11:37;10.33;;;7.83;;
17422;SDS011;8829;47.932;7.810;2023-05-24T00:14:05;10.50;;;7.87;;
17422;SDS011;8829;47.932;7.810;2023-05-24T00:16:32;12.63;;;7.90;;
17422;SDS011;8829;47.932;7.810;2023-05-24T00:19:00;9.47;;;7.47;;
17422;SDS011;8829;47.932;7.810;2023-05-24T00:21:27;9.10;;;7.47;;
17422;SDS011;8829;47.932;7.810;2023-05-24T00:23:54;7.90;;;7.10;;
17422;SDS011;8829;47.932;7.810;2023-05-24T00:26:21;8.70;;;7.17;;
17422;SDS011;8829;47.932;7.810;2023-05-24T00:28:47;8.27;;;6.70;;
17422;SDS011;8829;47.932;7.810;2023-05-24T00:31:15;9.20;;;7.97;;
17422;SDS011;8829;47.932;7.810;2023-05-24T00:33:42;10.40;;;7.57;;
17422;SDS011;8829;47.932;7.810;2023-05-24T00:36:09;12.47;;;8.07;;
17422;SDS011;8829;47.932;7.810;2023-05-24T00:38:35;8.37;;;7.03;;
17422;SDS011;8829;47.932;7.810;2023-05-24T00:41:02;7.80;;;6.73;;
17422;SDS011;8829;47.932;7.810;2023-05-24T00:43:29;11.03;;;7.17;;
17422;SDS011;8829;47.932;7.810;2023-05-24T00:46:02;7.50;;;6.73;;
17422;SDS011;8829;47.932;7.810;2023-05-24T00:48:44;8.80;;;7.10;;
17422;SDS011;8829;47.932;7.810;2023-05-24T00:51:11;7.47;;;6.70;;
17422;SDS011;8829;47.932;7.810;2023-05-24T00:53:38;10.43;;;6.03;;
17422;SDS011;8829;47.932;7.810;2023-05-24T00:56:06;8.60;;;5.80;;
17422;SDS011;8829;47.932;7.810;2023-05-24T00:58:33;7.00;;;6.10;;
17422;SDS011;8829;47.932;7.810;2023-05-24T01:01:01;6.73;;;6.00;;
17422;SDS011;8829;47.932;7.810;2023-05-24T01:03:30;7.30;;;5.93;;
17422;SDS011;8829;47.932;7.810;2023-05-24T01:05:57;10.13;;;6.60;;
17422;SDS011;8829;47.932;7.810;2023-05-24T01:08:30;7.03;;;6.13;;
17422;SDS011;8829;47.932;7.810;2023-05-24T01:11:10;8.30;;;6.43;;
17422;SDS011;8829;47.932;7.810;2023-05-24T01:13:47;8.50;;;6.23;;
17422;SDS011;8829;47.932;7.810;2023-05-24T01:16:23;7.30;;;5.97;;
17422;SDS011;8829;47.932;7.810;2023-05-24T01:18:54;10.50;;;6.30;;
17422;SDS011;8829;47.932;7.810;2023-05-24T01:21:29;7.83;;;6.00;;
17422;SDS011;8829;47.932;7.810;2023-05-24T01:24:13;7.23;;;6.53;;
17422;SDS011;8829;47.932;7.810;2023-05-24T01:27:00;7.90;;;6.40;;
17422;SDS011;8829;47.932;7.810;2023-05-24T01:29:30;8.33;;;6.03;;
17422;SDS011;8829;47.932;7.810;2023-05-24T01:31:58;8.67;;;5.87;;
17422;SDS011;8829;47.932;7.810;2023-05-24T01:34:25;7.50;;;6.00;;
17422;SDS011;8829;47.932;7.810;2023-05-24T01:36:52;8.13;;;6.50;;
17422;SDS011;8829;47.932;7.810;2023-05-24T01:39:19;5.83;;;5.13;;
17422;SDS011;8829;47.932;7.810;2023-05-24T01:41:50;6.97;;;6.07;;
17422;SDS011;8829;47.932;7.810;2023-05-24T01:44:30;7.50;;;5.97;;
17422;SDS011;8829;47.932;7.810;2023-05-24T01:47:03;7.87;;;5.97;;
17422;SDS011;8829;47.932;7.810;2023-05-24T01:49:39;6.80;;;6.13;;
17422;SDS011;8829;47.932;7.810;2023-05-24T01:52:11;6.87;;;5.70;;
17422;SDS011;8829;47.932;7.810;2023-05-24T01:54:42;8.03;;;5.93;;
17422;SDS011;8829;47.932;7.810;2023-05-24T01:57:14;6.00;;;5.27;;
17422;SDS011;8829;47.932;7.810;2023-05-24T01:59:44;6.47;;;5.60;;
17422;SDS011;8829;47.932;7.810;2023-05-24T02:02:12;5.97;;;5.37;;
17422;SDS011;8829;47.932;7.810;2023-05-24T02:04:39;6.93;;;5.77;;
17422;SDS011;8829;47.932;7.810;2023-05-24T02:07:06;7.00;;;5.40;;
17422;SDS011;8829;47.932;7.810;2023-05-24T02:09:33;5.97;;;5.37;;
17422;SDS011;8829;47.932;7.810;2023-05-24T02:12:00;7.43;;;6.30;;
17422;SDS011;8829;47.932;7.810;2023-05-24T02:14:26;5.37;;;4.87;;
17422;SDS011;8829;47.932;7.810;2023-05-24T02:16:54;6.57;;;5.87;;
17422;SDS011;8829;47.932;7.810;2023-05-24T02:19:22;6.97;;;5.43;;
17422;SDS011;8829;47.932;7.810;2023-05-24T02:21:49;6.57;;;5.77;;
17422;SDS011;8829;47.932;7.810;2023-05-24T02:24:17;6.10;;;5.50;;
17422;SDS011;8829;47.932;7.810;2023-05-24T02:26:43;6.70;;;6.00;;
17422;SDS011;8829;47.932;7.810;2023-05-24T02:29:10;5.60;;;4.67;;
17422;SDS011;8829;47.932;7.810;2023-05-24T02:31:37;7.73;;;5.97;;
17422;SDS011;8829;47.932;7.810;2023-05-24T02:34:05;7.93;;;5.70;;
17422;SDS011;8829;47.932;7.810;2023-05-24T02:36:32;9.30;;;5.87;;
17422;SDS011;8829;47.932;7.810;2023-05-24T02:39:00;8.07;;;6.10;;
17422;SDS011;8829;47.932;7.810;2023-05-24T02:41:27;7.03;;;5.33;;
17422;SDS011;8829;47.932;7.810;2023-05-24T02:43:54;8.00;;;6.13;;
17422;SDS011;8829;47.932;7.810;2023-05-24T02:46:21;8.37;;;5.67;;
17422;SDS011;8829;47.932;7.810;2023-05-24T02:48:47;8.97;;;6.23;;
17422;SDS011;8829;47.932;7.810;2023-05-24T02:51:16;6.67;;;5.50;;
17422;SDS011;8829;47.932;7.810;2023-05-24T02:53:42;9.30;;;5.57;;
17422;SDS011;8829;47.932;7.810;2023-05-24T02:56:09;6.43;;;5.57;;
17422;SDS011;8829;47.932;7.810;2023-05-24T02:58:37;6.53;;;5.67;;
17422;SDS011;8829;47.932;7.810;2023-05-24T03:01:05;7.53;;;5.57;;
17422;SDS011;8829;47.932;7.810;2023-05-24T03:03:32;11.77;;;6.30;;
17422;SDS011;8829;47.932;7.810;2023-05-24T03:05:59;6.80;;;5.67;;
17422;SDS011;8829;47.932;7.810;2023-05-24T03:08:27;6.53;;;5.27;;
17422;SDS011;8829;47.932;7.810;2023-05-24T03:10:53;7.53;;;5.63;;
17422;SDS011;8829;47.932;7.810;2023-05-24T03:13:20;8.03;;;5.63;;
17422;SDS011;8829;47.932;7.810;2023-05-24T03:15:47;8.30;;;5.87;;
17422;SDS011;8829;47.932;7.810;2023-05-24T03:18:14;6.83;;;6.13;;
17422;SDS011;8829;47.932;7.810;2023-05-24T03:20:40;5.50;;;4.97;;
17422;SDS011;8829;47.932;7.810;2023-05-24T03:23:07;7.93;;;5.30;;
17422;SDS011;8829;47.932;7.810;2023-05-24T03:25:36;8.07;;;5.80;;
17422;SDS011;8829;47.932;7.810;2023-05-24T03:28:02;8.70;;;5.37;;
17422;SDS011;8829;47.932;7.810;2023-05-24T03:30:29;6.20;;;5.10;;
17422;SDS011;8829;47.932;7.810;2023-05-24T03:32:56;7.47;;;5.00;;
17422;SDS011;8829;47.932;7.810;2023-05-24T03:35:23;6.37;;;5.13;;
17422;SDS011;8829;47.932;7.810;2023-05-24T03:37:49;9.97;;;5.37;;
17422;SDS011;8829;47.932;7.810;2023-05-24T03:40:17;10.17;;;5.03;;
17422;SDS011;8829;47.932;7.810;2023-05-24T03:42:45;7.10;;;5.37;;
17422;SDS011;8829;47.932;7.810;2023-05-24T03:45:12;7.07;;;4.53;;
17422;SDS011;8829;47.932;7.810;2023-05-24T03:47:39;5.20;;;4.70;;
17422;SDS011;8829;47.932;7.810;2023-05-24T03:50:06;6.67;;;4.60;;
17422;SDS011;8829;47.932;7.810;2023-05-24T03:52:33;6.63;;;4.70;;
17422;SDS011;8829;47.932;7.810;2023-05-24T03:54:59;5.20;;;4.50;;
17422;SDS011;8829;47.932;7.810;2023-05-24T03:57:26;6.77;;;4.77;;
17422;SDS011;8829;47.932;7.810;2023-05-24T03:59:54;6.03;;;4.00;;
17422;SDS011;8829;47.932;7.810;2023-05-24T04:02:21;5.67;;;4.87;;
17422;SDS011;8829;47.932;7.810;2023-05-24T04:04:47;8.87;;;4.83;;
17422;SDS011;8829;47.932;7.810;2023-05-24T04:07:14;7.17;;;4.87;;
17422;SDS011;8829;47.932;7.810;2023-05-24T04:09:41;5.77;;;4.23;;
17422;SDS011;8829;47.932;7.810;2023-05-24T04:12:08;5.10;;;4.43;;
17422;SDS011;8829;47.932;7.810;2023-05-24T04:14:35;4.03;;;3.73;;
17422;SDS011;8829;47.932;7.810;2023-05-24T04:17:04;6.00;;;4.40;;
17422;SDS011;8829;47.932;7.810;2023-05-24T04:19:32;6.23;;;4.20;;
17422;SDS011;8829;47.932;7.810;2023-05-24T04:21:59;7.77;;;5.10;;
17422;SDS011;8829;47.932;7.810;2023-05-24T04:24:25;8.23;;;4.93;;
17422;SDS011;8829;47.932;7.810;2023-05-24T04:26:53;6.43;;;4.50;;
17422;SDS011;8829;47.932;7.810;2023-05-24T04:29:22;6.03;;;4.37;;
17422;SDS011;8829;47.932;7.810;2023-05-24T04:31:50;6.43;;;4.30;;
17422;SDS011;8829;47.932;7.810;2023-05-24T04:34:19;6.33;;;4.67;;
17422;SDS011;8829;47.932;7.810;2023-05-24T04:36:47;4.50;;;3.87;;
17422;SDS011;8829;47.932;7.810;2023-05-24T04:39:16;9.90;;;4.87;;
17422;SDS011;8829;47.932;7.810;2023-05-24T04:41:43;7.27;;;4.50;;
17422;SDS011;8829;47.932;7.810;2023-05-24T04:44:10;6.23;;;3.73;;
17422;SDS011;8829;47.932;7.810;2023-05-24T04:46:37;5.10;;;3.90;;
17422;SDS011;8829;47.932;7.810;2023-05-24T04:49:03;9.37;;;5.47;;
17422;SDS011;8829;47.932;7.810;2023-05-24T04:51:33;6.33;;;4.50;;
17422;SDS011;8829;47.932;7.810;2023-05-24T04:54:02;6.10;;;3.73;;
17422;SDS011;8829;47.932;7.810;2023-05-24T04:56:32;6.43;;;4.43;;
17422;SDS011;8829;47.932;7.810;2023-05-24T04:58:59;4.83;;;4.10;;
17422;SDS011;8829;47.932;7.810;2023-05-24T05:01:26;5.63;;;4.53;;
17422;SDS011;8829;47.932;7.810;2023-05-24T05:03:53;4.47;;;4.07;;
17422;SDS011;8829;47.932;7.810;2023-05-24T05:06:19;5.10;;;4.10;;
17422;SDS011;8829;47.932;7.810;2023-05-24T05:08:48;7.07;;;4.10;;
17422;SDS011;8829;47.932;7.810;2023-05-24T05:11:15;5.07;;;3.70;;
17422;SDS011;8829;47.932;7.810;2023-05-24T05:13:43;7.87;;;4.63;;
17422;SDS011;8829;47.932;7.810;2023-05-24T05:16:09;5.67;;;4.30;;
17422;SDS011;8829;47.932;7.810;2023-05-24T05:18:36;5.40;;;3.77;;
17422;SDS011;8829;47.932;7.810;2023-05-24T05:21:03;5.33;;;4.03;;
17422;SDS011;8829;47.932;7.810;2023-05-24T05:23:30;4.63;;;3.93;;
17422;SDS011;8829;47.932;7.810;2023-05-24T05:25:58;6.03;;;4.03;;
17422;SDS011;8829;47.932;7.810;2023-05-24T05:28:25;5.17;;;4.20;;
17422;SDS011;8829;47.932;7.810;2023-05-24T05:30:51;4.60;;;3.50;;
17422;SDS011;8829;47.932;7.810;2023-05-24T05:33:18;9.13;;;4.00;;
17422;SDS011;8829;47.932;7.810;2023-05-24T05:35:45;4.73;;;4.30;;
17422;SDS011;8829;47.932;7.810;2023-05-24T05:38:11;4.53;;;3.93;;
17422;SDS011;8829;47.932;7.810;2023-05-24T05:40:38;4.87;;;3.93;;
17422;SDS011;8829;47.932;7.810;2023-05-24T05:43:06;7.10;;;4.27;;
17422;SDS011;8829;47.932;7.810;2023-05-24T05:45:33;4.87;;;4.33;;
17422;SDS011;8829;47.932;7.810;2023-05-24T05:48:00;7.17;;;4.80;;
17422;SDS011;8829;47.932;7.810;2023-05-24T05:50:27;4.97;;;4.47;;
17422;SDS011;8829;47.932;7.810;2023-05-24T05:52:53;5.57;;;4.63;;
17422;SDS011;8829;47.932;7.810;2023-05-24T05:55:20;6.23;;;4.60;;
17422;SDS011;8829;47.932;7.810;2023-05-24T05:57:47;5.60;;;4.03;;
17422;SDS011;8829;47.932;7.810;2023-05-24T06:00:16;6.47;;;4.87;;
17422;SDS011;8829;47.932;7.810;2023-05-24T06:02:43;5.40;;;4.37;;
17422;SDS011;8829;47.932;7.810;2023-05-24T06:05:09;6.53;;;4.10;;
17422;SDS011;8829;47.932;7.810;2023-05-24T06:07:36;4.73;;;4.33;;
17422;SDS011;8829;47.932;7.810;2023-05-24T06:10:03;6.80;;;3.83;;
17422;SDS011;8829;47.932;7.810;2023-05-24T06:12:31;5.57;;;3.83;;
17422;SDS011;8829;47.932;7.810;2023-05-24T06:14:58;6.50;;;4.57;;
17422;SDS011;8829;47.932;7.810;2023-05-24T06:17:26;4.27;;;3.73;;
17422;SDS011;8829;47.932;7.810;2023-05-24T06:19:53;7.40;;;4.33;;
17422;SDS011;8829;47.932;7.810;2023-05-24T06:22:19;9.67;;;4.57;;
17422;SDS011;8829;47.932;7.810;2023-05-24T06:24:46;6.83;;;4.03;;
17422;SDS011;8829;47.932;7.810;2023-05-24T06:27:14;6.00;;;4.70;;
17422;SDS011;8829;47.932;7.810;2023-05-24T06:29:40;7.27;;;4.03;;
17422;SDS011;8829;47.932;7.810;2023-05-24T06:32:07;9.63;;;4.33;;
17422;SDS011;8829;47.932;7.810;2023-05-24T06:34:35;8.33;;;4.40;;
17422;SDS011;8829;47.932;7.810;2023-05-24T06:37:02;5.53;;;3.70;;
17422;SDS011;8829;47.932;7.810;2023-05-24T06:39:29;6.83;;;4.33;;
17422;SDS011;8829;47.932;7.810;2023-05-24T06:41:56;7.07;;;3.93;;
17422;SDS011;8829;47.932;7.810;2023-05-24T06:44:22;5.17;;;3.97;;
17422;SDS011;8829;47.932;7.810;2023-05-24T06:46:55;8.00;;;3.60;;
17422;SDS011;8829;47.932;7.810;2023-05-24T06:49:22;8.63;;;4.40;;
17422;SDS011;8829;47.932;7.810;2023-05-24T06:51:50;6.90;;;4.03;;
17422;SDS011;8829;47.932;7.810;2023-05-24T06:54:17;7.63;;;4.67;;
17422;SDS011;8829;47.932;7.810;2023-05-24T06:56:44;6.53;;;3.83;;
17422;SDS011;8829;47.932;7.810;2023-05-24T06:59:10;7.77;;;4.37;;
17422;SDS011;8829;47.932;7.810;2023-05-24T07:01:37;7.13;;;4.27;;
17422;SDS011;8829;47.932;7.810;2023-05-24T07:04:06;7.13;;;4.40;;
17422;SDS011;8829;47.932;7.810;2023-05-24T07:06:33;7.20;;;4.50;;
17422;SDS011;8829;47.932;7.810;2023-05-24T07:09:02;6.53;;;4.17;;
17422;SDS011;8829;47.932;7.810;2023-05-24T07:11:29;6.67;;;3.80;;
17422;SDS011;8829;47.932;7.810;2023-05-24T07:13:56;5.90;;;4.10;;
17422;SDS011;8829;47.932;7.810;2023-05-24T07:16:23;7.13;;;4.50;;
17422;SDS011;8829;47.932;7.810;2023-05-24T07:18:50;9.63;;;4.33;;
17422;SDS011;8829;47.932;7.810;2023-05-24T07:21:17;7.73;;;4.60;;
17422;SDS011;8829;47.932;7.810;2023-05-24T07:23:43;8.77;;;4.53;;
17422;SDS011;8829;47.932;7.810;2023-05-24T07:26:11;18.53;;;4.90;;
17422;SDS011;8829;47.932;7.810;2023-05-24T07:28:38;8.83;;;4.93;;
17422;SDS011;8829;47.932;7.810;2023-05-24T07:31:05;9.83;;;4.33;;
17422;SDS011;8829;47.932;7.810;2023-05-24T07:33:34;7.50;;;4.57;;
17422;SDS011;8829;47.932;7.810;2023-05-24T07:36:02;5.57;;;4.10;;
17422;SDS011;8829;47.932;7.810;2023-05-24T07:38:29;9.87;;;4.87;;
17422;SDS011;8829;47.932;7.810;2023-05-24T07:40:57;8.90;;;4.30;;
17422;SDS011;8829;47.932;7.810;2023-05-24T07:43:26;6.53;;;4.33;;
17422;SDS011;8829;47.932;7.810;2023-05-24T07:45:52;6.90;;;3.97;;
17422;SDS011;8829;47.932;7.810;2023-05-24T07:48:19;6.00;;;3.60;;
17422;SDS011;8829;47.932;7.810;2023-05-24T07:50:47;9.40;;;4.53;;
17422;SDS011;8829;47.932;7.810;2023-05-24T07:53:14;9.07;;;4.57;;
17422;SDS011;8829;47.932;7.810;2023-05-24T07:55:41;9.70;;;4.33;;
17422;SDS011;8829;47.932;7.810;2023-05-24T07:58:09;9.77;;;4.37;;
17422;SDS011;8829;47.932;7.810;2023-05-24T08:00:37;7.70;;;4.50;;
17422;SDS011;8829;47.932;7.810;2023-05-24T08:03:04;8.53;;;3.93;;
17422;SDS011;8829;47.932;7.810;2023-05-24T08:05:31;6.03;;;4.20;;
17422;SDS011;8829;47.932;7.810;2023-05-24T08:08:16;9.13;;;4.10;;
17422;SDS011;8829;47.932;7.810;2023-05-24T08:10:43;5.27;;;3.77;;
17422;SDS011;8829;47.932;7.810;2023-05-24T08:13:10;12.67;;;5.13;;
17422;SDS011;8829;47.932;7.810;2023-05-24T08:15:39;8.60;;;4.30;;
17422;SDS011;8829;47.932;7.810;2023-05-24T08:18:06;7.83;;;3.70;;
17422;SDS011;8829;47.932;7.810;2023-05-24T08:20:33;7.03;;;3.77;;
17422;SDS011;8829;47.932;7.810;2023-05-24T08:23:02;6.90;;;4.00;;
17422;SDS011;8829;47.932;7.810;2023-05-24T08:25:29;8.50;;;5.77;;
17422;SDS011;8829;47.932;7.810;2023-05-24T08:27:55;9.23;;;3.90;;
17422;SDS011;8829;47.932;7.810;2023-05-24T08:30:22;11.30;;;4.10;;
17422;SDS011;8829;47.932;7.810;2023-05-24T08:32:51;7.60;;;4.10;;
17422;SDS011;8829;47.932;7.810;2023-05-24T08:35:18;7.43;;;3.73;;
17422;SDS011;8829;47.932;7.810;2023-05-24T08:37:46;7.50;;;3.90;;
17422;SDS011;8829;47.932;7.810;2023-05-24T08:40:13;9.90;;;3.77;;
17422;SDS011;8829;47.932;7.810;2023-05-24T08:42:39;7.77;;;4.00;;
17422;SDS011;8829;47.932;7.810;2023-05-24T08:45:07;6.23;;;3.77;;
17422;SDS011;8829;47.932;7.810;2023-05-24T08:47:36;6.77;;;4.17;;
17422;SDS011;8829;47.932;7.810;2023-05-24T08:50:06;8.97;;;4.40;;
17422;SDS011;8829;47.932;7.810;2023-05-24T08:52:33;7.63;;;3.63;;
17422;SDS011;8829;47.932;7.810;2023-05-24T08:55:00;9.60;;;4.10;;
17422;SDS011;8829;47.932;7.810;2023-05-24T08:57:29;10.77;;;3.97;;
17422;SDS011;8829;47.932;7.810;2023-05-24T08:59:58;5.47;;;3.87;;
17422;SDS011;8829;47.932;7.810;2023-05-24T09:02:25;9.50;;;5.10;;
17422;SDS011;8829;47.932;7.810;2023-05-24T09:04:52;6.37;;;3.80;;
17422;SDS011;8829;47.932;7.810;2023-05-24T09:07:21;5.53;;;3.73;;
17422;SDS011;8829;47.932;7.810;2023-05-24T09:09:49;7.90;;;4.00;;
17422;SDS011;8829;47.932;7.810;2023-05-24T09:12:23;8.67;;;4.07;;
17422;SDS011;8829;47.932;7.810;2023-05-24T09:14:51;10.37;;;4.27;;
17422;SDS011;8829;47.932;7.810;2023-05-24T09:17:18;10.57;;;4.47;;
17422;SDS011;8829;47.932;7.810;2023-05-24T09:19:46;7.30;;;3.83;;
17422;SDS011;8829;47.932;7.810;2023-05-24T09:22:15;8.00;;;3.80;;
17422;SDS011;8829;47.932;7.810;2023-05-24T09:24:47;6.13;;;4.07;;
17422;SDS011;8829;47.932;7.810;2023-05-24T09:27:14;6.00;;;3.40;;
17422;SDS011;8829;47.932;7.810;2023-05-24T09:29:41;7.77;;;3.80;;
17422;SDS011;8829;47.932;7.810;2023-05-24T09:32:10;5.20;;;3.40;;
17422;SDS011;8829;47.932;7.810;2023-05-24T09:34:38;10.63;;;3.80;;
17422;SDS011;8829;47.932;7.810;2023-05-24T09:37:05;9.70;;;4.27;;
17422;SDS011;8829;47.932;7.810;2023-05-24T09:39:34;7.73;;;3.80;;
17422;SDS011;8829;47.932;7.810;2023-05-24T09:42:02;12.07;;;4.33;;
17422;SDS011;8829;47.932;7.810;2023-05-24T09:44:29;9.67;;;4.13;;
17422;SDS011;8829;47.932;7.810;2023-05-24T09:47:00;9.67;;;4.07;;
17422;SDS011;8829;47.932;7.810;2023-05-24T09:49:29;6.70;;;4.03;;
17422;SDS011;8829;47.932;7.810;2023-05-24T09:51:55;10.07;;;3.83;;
17422;SDS011;8829;47.932;7.810;2023-05-24T09:54:22;7.30;;;3.93;;
17422;SDS011;8829;47.932;7.810;2023-05-24T09:56:50;6.70;;;3.67;;
17422;SDS011;8829;47.932;7.810;2023-05-24T09:59:19;8.97;;;3.70;;
17422;SDS011;8829;47.932;7.810;2023-05-24T10:01:46;8.33;;;3.73;;
17422;SDS011;8829;47.932;7.810;2023-05-24T10:04:17;5.20;;;3.97;;
17422;SDS011;8829;47.932;7.810;2023-05-24T10:06:44;7.90;;;3.90;;
17422;SDS011;8829;47.932;7.810;2023-05-24T10:09:12;9.50;;;3.83;;
17422;SDS011;8829;47.932;7.810;2023-05-24T10:11:40;8.63;;;4.07;;
17422;SDS011;8829;47.932;7.810;2023-05-24T10:14:08;9.37;;;4.40;;
17422;SDS011;8829;47.932;7.810;2023-05-24T10:16:36;7.43;;;4.30;;
17422;SDS011;8829;47.932;7.810;2023-05-24T10:19:03;4.63;;;3.73;;
17422;SDS011;8829;47.932;7.810;2023-05-24T10:21:30;7.33;;;3.87;;
17422;SDS011;8829;47.932;7.810;2023-05-24T10:24:00;7.50;;;3.97;;
17422;SDS011;8829;47.932;7.810;2023-05-24T10:26:30;13.53;;;5.00;;
17422;SDS011;8829;47.932;7.810;2023-05-24T10:28:59;8.37;;;3.80;;
17422;SDS011;8829;47.932;7.810;2023-05-24T10:31:32;6.27;;;3.73;;
17422;SDS011;8829;47.932;7.810;2023-05-24T10:34:04;11.30;;;3.90;;
17422;SDS011;8829;47.932;7.810;2023-05-24T10:36:31;7.90;;;3.83;;
17422;SDS011;8829;47.932;7.810;2023-05-24T10:38:58;10.53;;;3.73;;
17422;SDS011;8829;47.932;7.810;2023-05-24T10:41:26;10.53;;;3.67;;
17422;SDS011;8829;47.932;7.810;2023-05-24T10:43:53;5.60;;;3.77;;
17422;SDS011;8829;47.932;7.810;2023-05-24T10:46:22;10.27;;;4.40;;
17422;SDS011;8829;47.932;7.810;2023-05-24T10:48:57;7.03;;;3.97;;
17422;SDS011;8829;47.932;7.810;2023-05-24T10:51:42;10.83;;;4.47;;
17422;SDS011;8829;47.932;7.810;2023-05-24T10:54:09;8.57;;;4.50;;
17422;SDS011;8829;47.932;7.810;2023-05-24T10:56:41;9.47;;;4.07;;
17422;SDS011;8829;47.932;7.810;2023-05-24T10:59:20;10.03;;;4.33;;
17422;SDS011;8829;47.932;7.810;2023-05-24T11:01:53;11.23;;;4.53;;
17422;SDS011;8829;47.932;7.810;2023-05-24T11:04:21;9.03;;;4.23;;
17422;SDS011;8829;47.932;7.810;2023-05-24T11:06:53;8.87;;;4.57;;
17422;SDS011;8829;47.932;7.810;2023-05-24T11:09:20;10.53;;;4.60;;
17422;SDS011;8829;47.932;7.810;2023-05-24T11:11:48;12.33;;;4.63;;
17422;SDS011;8829;47.932;7.810;2023-05-24T11:14:19;11.03;;;4.80;;
17422;SDS011;8829;47.932;7.810;2023-05-24T11:16:48;9.30;;;3.80;;
17422;SDS011;8829;47.932;7.810;2023-05-24T11:19:16;12.20;;;6.53;;
17422;SDS011;8829;47.932;7.810;2023-05-24T11:21:45;11.07;;;4.93;;
17422;SDS011;8829;47.932;7.810;2023-05-24T11:24:14;10.57;;;5.10;;
17422;SDS011;8829;47.932;7.810;2023-05-24T11:26:42;5.97;;;4.00;;
17422;SDS011;8829;47.932;7.810;2023-05-24T11:29:11;11.00;;;4.47;;
17422;SDS011;8829;47.932;7.810;2023-05-24T11:31:45;8.77;;;4.63;;
17422;SDS011;8829;47.932;7.810;2023-05-24T11:34:12;9.47;;;4.23;;
17422;SDS011;8829;47.932;7.810;2023-05-24T11:36:40;6.93;;;3.80;;
17422;SDS011;8829;47.932;7.810;2023-05-24T11:39:07;7.73;;;4.67;;
17422;SDS011;8829;47.932;7.810;2023-05-24T11:41:36;10.90;;;4.00;;
17422;SDS011;8829;47.932;7.810;2023-05-24T11:44:03;8.07;;;4.10;;
17422;SDS011;8829;47.932;7.810;2023-05-24T11:46:32;7.63;;;4.07;;
17422;SDS011;8829;47.932;7.810;2023-05-24T11:48:59;12.47;;;4.17;;
17422;SDS011;8829;47.932;7.810;2023-05-24T11:51:28;8.20;;;3.97;;
17422;SDS011;8829;47.932;7.810;2023-05-24T11:53:55;12.03;;;5.13;;
17422;SDS011;8829;47.932;7.810;2023-05-24T11:56:25;10.60;;;3.90;;
17422;SDS011;8829;47.932;7.810;2023-05-24T11:58:55;10.27;;;4.10;;
17422;SDS011;8829;47.932;7.810;2023-05-24T12:01:30;9.03;;;3.73;;
17422;SDS011;8829;47.932;7.810;2023-05-24T12:03:57;11.17;;;4.23;;
17422;SDS011;8829;47.932;7.810;2023-05-24T12:06:23;9.70;;;4.23;;
17422;SDS011;8829;47.932;7.810;2023-05-24T12:08:59;7.10;;;3.93;;
17422;SDS011;8829;47.932;7.810;2023-05-24T12:11:29;11.43;;;4.63;;
17422;SDS011;8829;47.932;7.810;2023-05-24T12:13:57;8.37;;;4.10;;
17422;SDS011;8829;47.932;7.810;2023-05-24T12:16:24;6.73;;;4.00;;
17422;SDS011;8829;47.932;7.810;2023-05-24T12:18:56;13.20;;;4.10;;
17422;SDS011;8829;47.932;7.810;2023-05-24T12:21:23;17.40;;;4.70;;
17422;SDS011;8829;47.932;7.810;2023-05-24T12:23:49;8.03;;;3.73;;
17422;SDS011;8829;47.932;7.810;2023-05-24T12:26:16;6.43;;;3.60;;
17422;SDS011;8829;47.932;7.810;2023-05-24T12:28:46;10.27;;;4.37;;
17422;SDS011;8829;47.932;7.810;2023-05-24T12:31:19;10.83;;;4.60;;
17422;SDS011;8829;47.932;7.810;2023-05-24T12:33:46;15.00;;;4.20;;
17422;SDS011;8829;47.932;7.810;2023-05-24T12:36:13;8.83;;;4.43;;
17422;SDS011;8829;47.932;7.810;2023-05-24T12:38:39;7.97;;;4.03;;
17422;SDS011;8829;47.932;7.810;2023-05-24T12:41:06;5.67;;;4.50;;
17422;SDS011;8829;47.932;7.810;2023-05-24T12:43:32;7.87;;;4.53;;
17422;SDS011;8829;47.932;7.810;2023-05-24T12:46:01;7.80;;;3.90;;
17422;SDS011;8829;47.932;7.810;2023-05-24T12:48:29;9.40;;;4.47;;
17422;SDS011;8829;47.932;7.810;2023-05-24T12:50:56;10.43;;;4.37;;
17422;SDS011;8829;47.932;7.810;2023-05-24T12:53:22;10.97;;;5.47;;
17422;SDS011;8829;47.932;7.810;2023-05-24T12:55:49;12.37;;;4.20;;
17422;SDS011;8829;47.932;7.810;2023-05-24T12:58:19;9.93;;;4.80;;
17422;SDS011;8829;47.932;7.810;2023-05-24T13:00:47;9.80;;;5.07;;
17422;SDS011;8829;47.932;7.810;2023-05-24T13:03:15;9.23;;;5.00;;
17422;SDS011;8829;47.932;7.810;2023-05-24T13:05:44;6.67;;;4.27;;
17422;SDS011;8829;47.932;7.810;2023-05-24T13:08:11;9.50;;;4.70;;
17422;SDS011;8829;47.932;7.810;2023-05-24T13:10:38;7.80;;;4.73;;
17422;SDS011;8829;47.932;7.810;2023-05-24T13:13:05;11.00;;;4.90;;
17422;SDS011;8829;47.932;7.810;2023-05-24T13:15:32;7.83;;;4.00;;
17422;SDS011;8829;47.932;7.810;2023-05-24T13:17:59;8.83;;;4.03;;
17422;SDS011;8829;47.932;7.810;2023-05-24T13:20:26;10.33;;;4.27;;
17422;SDS011;8829;47.932;7.810;2023-05-24T13:22:54;8.87;;;4.17;;
17422;SDS011;8829;47.932;7.810;2023-05-24T13:25:21;7.53;;;4.30;;
17422;SDS011;8829;47.932;7.810;2023-05-24T13:27:48;11.27;;;4.57;;
17422;SDS011;8829;47.932;7.810;2023-05-24T13:30:14;6.77;;;4.30;;
17422;SDS011;8829;47.932;7.810;2023-05-24T13:32:42;9.90;;;4.30;;
17422;SDS011;8829;47.932;7.810;2023-05-24T13:35:09;10.17;;;4.50;;
17422;SDS011;8829;47.932;7.810;2023-05-24T13:37:35;9.70;;;4.37;;
17422;SDS011;8829;47.932;7.810;2023-05-24T13:40:05;7.47;;;3.77;;
17422;SDS011;8829;47.932;7.810;2023-05-24T13:42:32;8.70;;;3.70;;
17422;SDS011;8829;47.932;7.810;2023-05-24T13:45:00;11.60;;;4.10;;
17422;SDS011;8829;47.932;7.810;2023-05-24T13:47:27;7.63;;;4.17;;
17422;SDS011;8829;47.932;7.810;2023-05-24T13:49:54;10.10;;;3.93;;
17422;SDS011;8829;47.932;7.810;2023-05-24T13:52:21;7.33;;;4.03;;
17422;SDS011;8829;47.932;7.810;2023-05-24T13:54:48;6.17;;;3.43;;
17422;SDS011;8829;47.932;7.810;2023-05-24T13:57:16;9.43;;;3.90;;
17422;SDS011;8829;47.932;7.810;2023-05-24T13:59:43;7.87;;;4.60;;
17422;SDS011;8829;47.932;7.810;2023-05-24T14:02:10;8.30;;;3.70;;
17422;SDS011;8829;47.932;7.810;2023-05-24T14:04:36;9.30;;;4.57;;
17422;SDS011;8829;47.932;7.810;2023-05-24T14:07:03;7.03;;;4.03;;
17422;SDS011;8829;47.932;7.810;2023-05-24T14:09:32;8.90;;;4.53;;
17422;SDS011;8829;47.932;7.810;2023-05-24T14:11:59;12.00;;;4.90;;
17422;SDS011;8829;47.932;7.810;2023-05-24T14:14:29;5.87;;;3.73;;
17422;SDS011;8829;47.932;7.810;2023-05-24T14:16:56;11.53;;;4.10;;
17422;SDS011;8829;47.932;7.810;2023-05-24T14:19:23;7.63;;;4.13;;
17422;SDS011;8829;47.932;7.810;2023-05-24T14:21:49;8.97;;;4.07;;
17422;SDS011;8829;47.932;7.810;2023-05-24T14:24:16;6.73;;;3.60;;
17422;SDS011;8829;47.932;7.810;2023-05-24T14:26:43;9.27;;;3.37;;
17422;SDS011;8829;47.932;7.810;2023-05-24T14:29:11;7.30;;;3.93;;
17422;SDS011;8829;47.932;7.810;2023-05-24T14:31:39;6.70;;;3.60;;
17422;SDS011;8829;47.932;7.810;2023-05-24T14:34:07;7.03;;;3.87;;
17422;SDS011;8829;47.932;7.810;2023-05-24T14:36:35;7.57;;;4.23;;
17422;SDS011;8829;47.932;7.810;2023-05-24T14:39:02;10.93;;;4.17;;
17422;SDS011;8829;47.932;7.810;2023-05-24T14:41:30;6.77;;;3.43;;
17422;SDS011;8829;47.932;7.810;2023-05-24T14:43:57;6.77;;;3.70;;
17422;SDS011;8829;47.932;7.810;2023-05-24T14:46:24;10.10;;;4.43;;
17422;SDS011;8829;47.932;7.810;2023-05-24T14:48:53;9.37;;;4.20;;
17422;SDS011;8829;47.932;7.810;2023-05-24T14:51:19;6.73;;;3.87;;
17422;SDS011;8829;47.932;7.810;2023-05-24T14:53:46;10.00;;;3.37;;
17422;SDS011;8829;47.932;7.810;2023-05-24T14:56:13;4.57;;;3.27;;
17422;SDS011;8829;47.932;7.810;2023-05-24T14:58:40;6.33;;;3.60;;
17422;SDS011;8829;47.932;7.810;2023-05-24T15:01:07;4.40;;;3.50;;
17422;SDS011;8829;47.932;7.810;2023-05-24T15:03:34;6.73;;;3.00;;